createdAt,value
2023-01-27T00:01:19.240Z,-2.32
2023-01-27T00:03:48.533Z,-2.39
2023-01-27T00:06:16.816Z,-2.41
2023-01-27T00:08:45.211Z,-2.47
2023-01-27T00:11:31.080Z,-2.52
2023-01-27T00:14:01.263Z,-2.56
2023-01-27T00:16:29.947Z,-2.61
2023-01-27T00:19:00.991Z,-2.65
2023-01-27T00:21:46.836Z,-2.66
2023-01-27T00:24:36.048Z,-2.68
2023-01-27T00:27:05.529Z,-2.69
2023-01-27T00:29:35.462Z,-2.73
2023-01-27T00:32:21.322Z,-2.73
2023-01-27T00:34:49.839Z,-2.67
2023-01-27T00:37:20.053Z,-2.61
2023-01-27T00:39:48.344Z,-2.54
2023-01-27T00:42:20.077Z,-2.46
2023-01-27T00:45:03.584Z,-2.38
2023-01-27T00:47:31.862Z,-2.29
2023-01-27T00:50:00.143Z,-2.26
2023-01-27T00:52:30.332Z,-2.21
2023-01-27T00:54:58.593Z,-2.18
2023-01-27T00:57:27.089Z,-2.14
2023-01-27T00:59:59.888Z,-2.12
2023-01-27T01:02:28.361Z,-2.10
2023-01-27T01:04:56.914Z,-2.08
2023-01-27T01:07:25.377Z,-2.09
2023-01-27T01:09:53.680Z,-2.11
2023-01-27T01:12:22.396Z,-2.08
2023-01-27T01:14:52.283Z,-2.10
2023-01-27T01:17:22.003Z,-2.14
2023-01-27T01:19:50.746Z,-2.18
2023-01-27T01:22:21.318Z,-2.19
2023-01-27T01:24:51.951Z,-2.20
2023-01-27T01:27:20.331Z,-2.20
2023-01-27T01:29:48.611Z,-2.20
2023-01-27T01:32:17.270Z,-2.20
2023-01-27T01:34:47.031Z,-2.19
2023-01-27T01:37:19.701Z,-2.19
2023-01-27T01:39:48.072Z,-2.26
2023-01-27T01:42:17.320Z,-2.28
2023-01-27T01:44:46.715Z,-2.31
2023-01-27T01:47:18.898Z,-2.33
2023-01-27T01:49:49.371Z,-2.37
2023-01-27T01:52:24.843Z,-2.43
2023-01-27T01:54:58.432Z,-2.50
2023-01-27T01:57:32.189Z,-2.60
2023-01-27T02:00:08.071Z,-2.67
2023-01-27T02:02:38.768Z,-2.72
2023-01-27T02:05:12.568Z,-2.80
2023-01-27T02:07:50.036Z,-2.80
2023-01-27T02:10:18.529Z,-2.81
2023-01-27T02:12:47.034Z,-2.81
2023-01-27T02:15:15.529Z,-2.82
2023-01-27T02:17:45.118Z,-2.88
2023-01-27T02:20:22.767Z,-2.95
2023-01-27T02:23:04.502Z,-2.98
2023-01-27T02:25:45.331Z,-3.07
2023-01-27T02:28:14.132Z,-3.08
2023-01-27T02:30:42.420Z,-3.15
2023-01-27T02:33:14.563Z,-3.16
2023-01-27T02:35:49.332Z,-3.19
2023-01-27T02:38:19.983Z,-3.23
2023-01-27T02:40:56.860Z,-3.29
2023-01-27T02:43:25.256Z,-3.33
2023-01-27T02:45:53.728Z,-3.34
2023-01-27T02:48:22.079Z,-3.35
2023-01-27T02:50:52.532Z,-3.38
2023-01-27T02:53:20.748Z,-3.42
2023-01-27T02:55:50.370Z,-3.47
2023-01-27T02:58:19.563Z,-3.48
2023-01-27T03:00:47.959Z,-3.49
2023-01-27T03:03:17.763Z,-3.47
2023-01-27T03:05:51.063Z,-3.55
2023-01-27T03:08:19.910Z,-3.51
2023-01-27T03:10:53.397Z,-3.50
2023-01-27T03:13:23.258Z,-3.49
2023-01-27T03:16:09.462Z,-3.50
2023-01-27T03:18:37.955Z,-3.45
2023-01-27T03:21:08.427Z,-3.44
2023-01-27T03:23:38.496Z,-3.43
2023-01-27T03:26:10.738Z,-3.43
2023-01-27T03:28:40.272Z,-3.43
2023-01-27T03:31:10.339Z,-3.43
2023-01-27T03:33:44.003Z,-3.44
2023-01-27T03:36:29.803Z,-3.47
2023-01-27T03:39:16.456Z,-3.53
2023-01-27T03:42:05.329Z,-3.52
2023-01-27T03:44:50.776Z,-3.53
2023-01-27T03:47:19.469Z,-3.55
2023-01-27T03:49:47.756Z,-3.55
2023-01-27T03:52:17.428Z,-3.58
2023-01-27T03:54:45.734Z,-3.59
2023-01-27T03:57:15.832Z,-3.62
2023-01-27T03:59:45.689Z,-3.66
2023-01-27T04:02:31.454Z,-3.65
2023-01-27T04:05:17.017Z,-3.68
2023-01-27T04:07:45.636Z,-3.69
2023-01-27T04:10:13.939Z,-3.70
2023-01-27T04:12:42.784Z,-3.71
2023-01-27T04:15:11.635Z,-3.71
2023-01-27T04:17:41.824Z,-3.72
2023-01-27T04:20:13.099Z,-3.70
2023-01-27T04:22:41.404Z,-3.72
2023-01-27T04:25:13.459Z,-3.73
2023-01-27T04:27:43.581Z,-3.79
2023-01-27T04:30:13.050Z,-3.83
2023-01-27T04:32:41.259Z,-3.82
2023-01-27T04:35:11.672Z,-3.85
2023-01-27T04:37:40.467Z,-3.94
2023-01-27T04:40:10.186Z,-3.99
2023-01-27T04:42:40.631Z,-4.02
2023-01-27T04:45:12.075Z,-4.07
2023-01-27T04:47:45.573Z,-4.10
2023-01-27T04:50:13.828Z,-4.14
2023-01-27T04:52:42.007Z,-4.15
2023-01-27T04:55:12.701Z,-4.15
2023-01-27T04:57:41.333Z,-4.15
2023-01-27T05:00:16.480Z,-4.15
2023-01-27T05:02:44.877Z,-4.16
2023-01-27T05:05:13.739Z,-4.16
2023-01-27T05:07:42.227Z,-4.19
2023-01-27T05:10:11.794Z,-4.15
2023-01-27T05:12:40.058Z,-4.15
2023-01-27T05:15:11.757Z,-4.19
2023-01-27T05:17:40.168Z,-4.20
2023-01-27T05:20:08.905Z,-4.23
2023-01-27T05:22:37.238Z,-4.21
2023-01-27T05:25:06.251Z,-4.18
2023-01-27T05:27:34.669Z,-4.20
2023-01-27T05:30:03.445Z,-4.20
2023-01-27T05:32:33.158Z,-4.22
2023-01-27T05:35:01.591Z,-4.26
2023-01-27T05:37:30.828Z,-4.25
2023-01-27T05:39:59.579Z,-4.26
2023-01-27T05:42:28.903Z,-4.24
2023-01-27T05:44:57.935Z,-4.25
2023-01-27T05:47:26.406Z,-4.25
2023-01-27T05:49:57.108Z,-4.27
2023-01-27T05:52:25.528Z,-4.26
2023-01-27T05:54:53.824Z,-4.27
2023-01-27T05:57:22.067Z,-4.29
2023-01-27T05:59:50.457Z,-4.28
2023-01-27T06:02:18.783Z,-4.27
2023-01-27T06:04:47.783Z,-4.28
2023-01-27T06:07:19.794Z,-4.28
2023-01-27T06:09:48.550Z,-4.26
2023-01-27T06:12:16.884Z,-4.21
2023-01-27T06:14:46.223Z,-4.16
2023-01-27T06:17:14.999Z,-4.12
2023-01-27T06:19:43.444Z,-4.10
2023-01-27T06:22:11.771Z,-4.07
2023-01-27T06:24:44.500Z,-4.06
2023-01-27T06:27:12.980Z,-4.07
2023-01-27T06:29:41.795Z,-4.10
2023-01-27T06:32:10.255Z,-4.11
2023-01-27T06:34:40.337Z,-4.15
2023-01-27T06:37:08.597Z,-4.16
2023-01-27T06:39:37.308Z,-4.18
2023-01-27T06:42:09.604Z,-4.22
2023-01-27T06:44:39.262Z,-4.24
2023-01-27T06:47:07.627Z,-4.25
2023-01-27T06:49:36.146Z,-4.24
2023-01-27T06:52:05.328Z,-4.26
2023-01-27T06:54:33.944Z,-4.27
2023-01-27T06:57:04.115Z,-4.29
2023-01-27T06:59:34.326Z,-4.29
2023-01-27T07:02:03.354Z,-4.35
2023-01-27T07:04:31.631Z,-4.34
2023-01-27T07:07:08.622Z,-4.32
2023-01-27T07:09:51.564Z,-4.33
2023-01-27T07:12:20.632Z,-4.34
2023-01-27T07:14:52.491Z,-4.31
2023-01-27T07:17:21.127Z,-4.31
2023-01-27T07:19:49.406Z,-4.29
2023-01-27T07:22:18.102Z,-4.23
2023-01-27T07:24:47.459Z,-4.19
2023-01-27T07:27:16.227Z,-4.15
2023-01-27T07:29:45.457Z,-4.07
2023-01-27T07:32:15.207Z,-3.99
2023-01-27T07:34:43.487Z,-3.92
2023-01-27T07:37:15.686Z,-3.89
2023-01-27T07:39:44.280Z,-3.84
2023-01-27T07:42:14.346Z,-3.80
2023-01-27T07:44:42.605Z,-3.75
2023-01-27T07:47:10.816Z,-3.72
2023-01-27T07:49:40.545Z,-3.68
2023-01-27T07:52:08.894Z,-3.62
2023-01-27T07:54:37.223Z,-3.57
2023-01-27T07:57:05.768Z,-3.47
2023-01-27T07:59:34.060Z,-3.41
2023-01-27T08:02:03.045Z,-3.33
2023-01-27T08:04:35.218Z,-3.26
2023-01-27T08:07:09.789Z,-3.17
2023-01-27T08:09:38.029Z,-3.08
2023-01-27T08:12:06.792Z,-2.98
2023-01-27T08:14:36.216Z,-2.92
2023-01-27T08:17:04.955Z,-2.81
2023-01-27T08:19:33.676Z,-2.71
2023-01-27T08:22:02.386Z,-2.61
2023-01-27T08:24:32.225Z,-2.51
2023-01-27T08:27:00.920Z,-2.42
2023-01-27T08:29:32.361Z,-2.30
2023-01-27T08:32:00.687Z,-2.21
2023-01-27T08:34:28.923Z,-2.12
2023-01-27T08:36:57.381Z,-2.03
2023-01-27T08:39:25.581Z,-1.95
2023-01-27T08:42:01.353Z,-1.89
2023-01-27T08:44:29.566Z,-1.86
2023-01-27T08:46:58.118Z,-1.81
2023-01-27T08:49:27.114Z,-1.75
2023-01-27T08:51:55.371Z,-1.70
2023-01-27T08:54:23.547Z,-1.62
2023-01-27T08:56:55.713Z,-1.52
2023-01-27T08:59:25.519Z,-1.41
2023-01-27T09:01:54.414Z,-1.27
2023-01-27T09:04:23.620Z,-1.18
2023-01-27T09:06:54.233Z,-1.09
2023-01-27T09:09:22.428Z,-1.07
2023-01-27T09:11:52.210Z,-1.02
2023-01-27T09:14:21.307Z,-1.04
2023-01-27T09:16:51.559Z,-0.97
2023-01-27T09:19:19.805Z,-0.91
2023-01-27T09:21:47.979Z,-0.83
2023-01-27T09:24:18.188Z,-0.68
2023-01-27T09:26:46.640Z,-0.57
2023-01-27T09:29:14.984Z,-0.48
2023-01-27T09:31:43.386Z,-0.40
2023-01-27T09:34:13.389Z,-0.37
2023-01-27T09:36:48.553Z,-0.29
2023-01-27T09:39:21.299Z,-0.19
2023-01-27T09:42:08.892Z,0.03
2023-01-27T09:44:58.253Z,0.20
2023-01-27T09:47:40.467Z,0.41
2023-01-27T09:50:30.428Z,0.60
2023-01-27T09:53:26.280Z,0.74
2023-01-27T09:55:59.580Z,0.92
2023-01-27T09:58:48.387Z,1.04
2023-01-27T10:01:25.858Z,1.16
2023-01-27T10:04:12.192Z,1.24
2023-01-27T10:06:59.056Z,1.32
2023-01-27T10:09:53.364Z,1.42
2023-01-27T10:12:36.238Z,1.42
2023-01-27T10:15:18.261Z,1.43
2023-01-27T10:17:54.536Z,1.33
2023-01-27T10:20:32.087Z,1.28
2023-01-27T10:23:14.739Z,1.19
2023-01-27T10:26:00.264Z,1.16
2023-01-27T10:28:32.633Z,1.18
2023-01-27T10:31:10.146Z,1.25
2023-01-27T10:33:52.301Z,1.37
2023-01-27T10:36:30.101Z,1.43
2023-01-27T10:39:16.267Z,1.52
2023-01-27T10:41:52.942Z,1.55
2023-01-27T10:44:40.398Z,1.50
2023-01-27T10:47:19.040Z,1.59
2023-01-27T10:49:54.516Z,1.62
2023-01-27T10:52:28.362Z,1.72
2023-01-27T10:55:06.718Z,1.80
2023-01-27T10:57:38.435Z,1.83
2023-01-27T11:03:10.387Z,1.82
2023-01-27T11:05:42.031Z,1.79
2023-01-27T11:08:17.538Z,1.85
2023-01-27T11:11:08.283Z,1.89
2023-01-27T11:13:37.038Z,1.90
2023-01-27T11:16:07.629Z,1.93
2023-01-27T11:18:39.286Z,1.94
2023-01-27T11:21:11.611Z,1.93
2023-01-27T11:23:43.328Z,1.90
2023-01-27T11:26:27.434Z,1.93
2023-01-27T11:29:10.915Z,1.92
2023-01-27T11:31:55.195Z,1.89
2023-01-27T11:34:30.993Z,1.86
2023-01-27T11:37:00.267Z,1.92
2023-01-27T11:39:34.035Z,1.86
2023-01-27T11:42:06.254Z,1.87
2023-01-27T11:44:36.176Z,1.87
2023-01-27T11:47:25.084Z,1.90
2023-01-27T11:49:55.571Z,1.91
2023-01-27T11:52:27.336Z,1.92
2023-01-27T11:55:01.799Z,1.93
2023-01-27T11:57:32.656Z,1.95
2023-01-27T12:00:04.107Z,1.92
2023-01-27T12:02:37.721Z,1.87
2023-01-27T12:05:10.627Z,1.82
2023-01-27T12:07:53.776Z,1.77
2023-01-27T12:10:29.476Z,1.71
2023-01-27T12:13:01.738Z,1.66
2023-01-27T12:15:32.883Z,1.67
2023-01-27T12:18:04.790Z,1.63
2023-01-27T12:20:37.313Z,1.56
2023-01-27T12:23:18.129Z,1.55
2023-01-27T12:25:50.609Z,1.52
2023-01-27T12:28:30.566Z,1.49
2023-01-27T12:31:06.438Z,1.47
2023-01-27T12:33:35.681Z,1.48
2023-01-27T12:36:13.156Z,1.49
2023-01-27T12:38:47.184Z,1.50
2023-01-27T12:41:24.712Z,1.46
2023-01-27T12:44:00.404Z,1.45
2023-01-27T12:46:30.072Z,1.43
2023-01-27T12:49:04.192Z,1.40
2023-01-27T12:51:41.957Z,1.40
2023-01-27T12:54:25.535Z,1.36
2023-01-27T12:56:56.567Z,1.35
2023-01-27T12:59:28.499Z,1.34
2023-01-27T13:02:02.880Z,1.33
2023-01-27T13:04:37.171Z,1.32
2023-01-27T13:07:09.544Z,1.37
2023-01-27T13:09:40.670Z,1.39
2023-01-27T13:12:18.083Z,1.40
2023-01-27T13:14:53.390Z,1.44
2023-01-27T13:17:31.611Z,1.43
2023-01-27T13:20:04.368Z,1.43
2023-01-27T13:22:41.628Z,1.46
2023-01-27T13:25:19.260Z,1.43
2023-01-27T13:27:49.922Z,1.46
2023-01-27T13:30:25.590Z,1.42
2023-01-27T13:32:57.937Z,1.45
2023-01-27T13:35:32.336Z,1.46
2023-01-27T13:38:07.668Z,1.47
2023-01-27T13:40:40.152Z,1.47
2023-01-27T13:43:14.949Z,1.48
2023-01-27T13:45:50.041Z,1.49
2023-01-27T13:48:26.413Z,1.47
2023-01-27T13:51:05.626Z,1.48
2023-01-27T13:53:37.829Z,1.50
2023-01-27T13:56:23.272Z,1.49
2023-01-27T13:58:59.843Z,1.48
2023-01-27T14:01:41.126Z,1.45
2023-01-27T14:04:26.519Z,1.47
2023-01-27T14:07:10.745Z,1.45
2023-01-27T14:09:58.786Z,1.46
2023-01-27T14:12:45.600Z,1.43
2023-01-27T14:15:26.773Z,1.43
2023-01-27T14:18:04.849Z,1.41
2023-01-27T14:20:59.043Z,1.41
2023-01-27T14:23:47.846Z,1.40
2023-01-27T14:26:28.154Z,1.38
2023-01-27T14:29:09.016Z,1.37
2023-01-27T14:31:49.807Z,1.33
2023-01-27T14:34:36.834Z,1.30
2023-01-27T14:37:17.482Z,1.26
2023-01-27T14:39:57.287Z,1.22
2023-01-27T14:42:37.180Z,1.18
2023-01-27T14:45:18.713Z,1.14
2023-01-27T14:47:58.394Z,1.06
2023-01-27T14:50:39.492Z,1.00
2023-01-27T14:53:25.950Z,0.94
2023-01-27T14:56:00.006Z,0.87
2023-01-27T14:58:43.863Z,0.83
2023-01-27T15:01:25.311Z,0.79
2023-01-27T15:04:21.574Z,0.73
2023-01-27T15:06:56.726Z,0.65
2023-01-27T15:09:45.461Z,0.58
2023-01-27T15:12:29.727Z,0.52
2023-01-27T15:15:32.901Z,0.45
2023-01-27T15:18:15.641Z,0.41
2023-01-27T15:21:18.639Z,0.35
2023-01-27T15:24:18.454Z,0.30
2023-01-27T15:26:49.925Z,0.24
2023-01-27T15:29:21.847Z,0.18
2023-01-27T15:32:23.702Z,0.11
2023-01-27T15:34:54.533Z,0.04
2023-01-27T15:37:24.542Z,-0.08
2023-01-27T15:40:16.362Z,-0.10
2023-01-27T15:42:53.519Z,-0.15
2023-01-27T15:45:33.447Z,-0.20
2023-01-27T15:48:04.345Z,-0.23
2023-01-27T15:50:35.704Z,-0.27
2023-01-27T15:53:11.322Z,-0.33
2023-01-27T15:55:50.182Z,-0.37
2023-01-27T15:58:30.133Z,-0.40
2023-01-27T16:01:02.531Z,-0.45
2023-01-27T16:03:35.419Z,-0.53
2023-01-27T16:06:12.407Z,-0.53
2023-01-27T16:08:44.645Z,-0.59
2023-01-27T16:11:43.580Z,-0.60
2023-01-27T16:14:40.121Z,-0.62
2023-01-27T16:17:28.951Z,-0.65
2023-01-27T16:20:07.820Z,-0.69
2023-01-27T16:22:40.058Z,-0.72
2023-01-27T16:25:22.889Z,-0.74
2023-01-27T16:28:01.099Z,-0.77
2023-01-27T16:30:32.878Z,-0.81
2023-01-27T16:33:07.834Z,-0.81
2023-01-27T16:35:43.990Z,-0.81
2023-01-27T16:38:27.481Z,-0.81
2023-01-27T16:40:58.204Z,-0.83
2023-01-27T16:43:35.264Z,-0.82
2023-01-27T16:46:03.773Z,-0.86
2023-01-27T16:48:37.741Z,-0.87
2023-01-27T16:51:15.373Z,-0.86
2023-01-27T16:53:48.606Z,-0.88
2023-01-27T16:56:25.214Z,-0.89
2023-01-27T16:59:00.949Z,-0.90
2023-01-27T17:01:37.883Z,-0.91
2023-01-27T17:04:19.540Z,-0.96
2023-01-27T17:06:49.174Z,-0.97
2023-01-27T17:09:23.375Z,-1.00
2023-01-27T17:11:53.776Z,-1.02
2023-01-27T17:14:31.959Z,-1.05
2023-01-27T17:17:02.361Z,-1.09
2023-01-27T17:19:35.607Z,-1.10
2023-01-27T17:22:06.752Z,-1.11
2023-01-27T17:24:38.091Z,-1.12
2023-01-27T17:27:11.466Z,-1.14
2023-01-27T17:29:46.315Z,-1.15
2023-01-27T17:32:22.229Z,-1.15
2023-01-27T17:34:52.246Z,-1.19
2023-01-27T17:37:22.491Z,-1.19
2023-01-27T17:39:55.359Z,-1.17
2023-01-27T17:42:27.631Z,-1.21
2023-01-27T17:45:17.326Z,-1.24
2023-01-27T17:47:48.114Z,-1.26
2023-01-27T17:50:18.922Z,-1.28
2023-01-27T17:52:52.606Z,-1.30
2023-01-27T17:55:23.535Z,-1.32
2023-01-27T17:57:55.695Z,-1.35
2023-01-27T18:00:28.501Z,-1.34
2023-01-27T18:03:02.601Z,-1.37
2023-01-27T18:05:33.384Z,-1.38
2023-01-27T18:08:03.850Z,-1.39
2023-01-27T18:10:40.117Z,-1.39
2023-01-27T18:13:14.761Z,-1.42
2023-01-27T18:15:49.371Z,-1.42
2023-01-27T18:18:25.680Z,-1.41
2023-01-27T18:21:05.751Z,-1.44
2023-01-27T18:23:36.390Z,-1.43
2023-01-27T18:26:07.503Z,-1.45
2023-01-27T18:28:39.328Z,-1.49
2023-01-27T18:31:16.849Z,-1.54
2023-01-27T18:33:46.910Z,-1.57
2023-01-27T18:36:23.664Z,-1.59
2023-01-27T18:38:52.265Z,-1.64
2023-01-27T18:41:27.546Z,-1.65
2023-01-27T18:43:55.978Z,-1.69
2023-01-27T18:46:24.367Z,-1.71
2023-01-27T18:48:55.740Z,-1.73
2023-01-27T18:51:24.183Z,-1.75
2023-01-27T18:53:52.533Z,-1.79
2023-01-27T18:56:20.871Z,-1.79
2023-01-27T18:58:49.549Z,-1.80
2023-01-27T19:01:23.239Z,-1.78
2023-01-27T19:03:57.332Z,-1.75
2023-01-27T19:06:26.463Z,-1.76
2023-01-27T19:08:54.772Z,-1.76
2023-01-27T19:11:22.915Z,-1.78
2023-01-27T19:13:51.162Z,-1.77
2023-01-27T19:16:19.721Z,-1.75
2023-01-27T19:18:55.930Z,-1.76
2023-01-27T19:21:25.541Z,-1.77
2023-01-27T19:23:53.778Z,-1.79
2023-01-27T19:26:23.881Z,-1.79
2023-01-27T19:28:55.442Z,-1.82
2023-01-27T19:31:24.275Z,-1.84
2023-01-27T19:33:56.138Z,-1.85
2023-01-27T19:36:30.561Z,-1.86
2023-01-27T19:39:03.200Z,-1.88
2023-01-27T19:41:31.862Z,-1.89
2023-01-27T19:44:02.722Z,-1.90
2023-01-27T19:46:31.260Z,-1.93
2023-01-27T19:49:04.643Z,-1.92
2023-01-27T19:51:35.184Z,-1.93
2023-01-27T19:54:03.865Z,-1.92
2023-01-27T19:56:34.509Z,-1.93
2023-01-27T19:59:02.782Z,-1.98
2023-01-27T20:01:31.047Z,-1.94
2023-01-27T20:03:59.366Z,-1.94
2023-01-27T20:06:30.078Z,-1.94
2023-01-27T20:09:03.605Z,-1.96
2023-01-27T20:11:35.228Z,-1.97
2023-01-27T20:14:07.960Z,-1.96
2023-01-27T20:16:36.228Z,-2.01
2023-01-27T20:19:05.181Z,-1.94
2023-01-27T20:21:34.659Z,-1.94
2023-01-27T20:24:04.643Z,-1.94
2023-01-27T20:26:33.161Z,-1.95
2023-01-27T20:29:01.569Z,-1.94
2023-01-27T20:31:30.073Z,-1.95
2023-01-27T20:33:59.828Z,-1.93
2023-01-27T20:36:28.042Z,-1.92
2023-01-27T20:38:56.221Z,-1.92
2023-01-27T20:41:26.667Z,-1.95
2023-01-27T20:44:00.390Z,-1.96
2023-01-27T20:46:30.694Z,-1.96
2023-01-27T20:49:00.154Z,-1.95
2023-01-27T20:51:28.534Z,-1.93
2023-01-27T20:53:57.905Z,-1.92
2023-01-27T20:56:28.160Z,-1.93
2023-01-27T20:58:56.412Z,-1.96
2023-01-27T21:01:24.986Z,-1.93
2023-01-27T21:03:54.066Z,-1.93
2023-01-27T21:06:22.696Z,-1.93
2023-01-27T21:08:50.984Z,-1.92
2023-01-27T21:11:21.469Z,-1.90
2023-01-27T21:13:54.900Z,-1.90
2023-01-27T21:16:23.156Z,-1.90
2023-01-27T21:18:51.666Z,-1.92
2023-01-27T21:21:25.539Z,-1.92
2023-01-27T21:23:54.002Z,-1.92
2023-01-27T21:26:22.614Z,-1.92
2023-01-27T21:28:52.328Z,-1.94
2023-01-27T21:31:22.579Z,-1.94
2023-01-27T21:33:51.144Z,-1.94
2023-01-27T21:36:20.253Z,-1.94
2023-01-27T21:38:50.405Z,-1.94
2023-01-27T21:41:47.179Z,-1.95
2023-01-27T21:44:37.314Z,-1.95
2023-01-27T21:47:07.586Z,-1.93
2023-01-27T21:49:57.521Z,-1.91
2023-01-27T21:52:29.186Z,-1.91
2023-01-27T21:54:57.457Z,-1.90
2023-01-27T21:57:25.732Z,-1.91
2023-01-27T21:59:55.778Z,-1.94
2023-01-27T22:02:24.553Z,-1.92
2023-01-27T22:04:52.846Z,-1.93
2023-01-27T22:07:21.823Z,-1.93
2023-01-27T22:09:49.957Z,-1.93
2023-01-27T22:12:18.573Z,-1.94
2023-01-27T22:14:46.907Z,-1.94
2023-01-27T22:17:18.389Z,-1.93
2023-01-27T22:19:47.245Z,-1.93
2023-01-27T22:22:15.501Z,-1.94
2023-01-27T22:24:44.321Z,-1.93
2023-01-27T22:27:12.490Z,-1.95
2023-01-27T22:29:40.683Z,-1.92
2023-01-27T22:32:09.104Z,-1.93
2023-01-27T22:34:39.035Z,-1.92
2023-01-27T22:37:07.495Z,-1.93
2023-01-27T22:39:43.406Z,-1.93
2023-01-27T22:42:12.557Z,-1.91
2023-01-27T22:44:40.774Z,-1.93
2023-01-27T22:47:09.068Z,-1.94
2023-01-27T22:49:39.169Z,-1.93
2023-01-27T22:52:07.292Z,-1.93
2023-01-27T22:54:48.427Z,-1.93
2023-01-27T22:57:16.710Z,-1.96
2023-01-27T22:59:44.928Z,-1.95
2023-01-27T23:02:14.451Z,-1.97
2023-01-27T23:04:44.296Z,-1.95
2023-01-27T23:07:12.473Z,-1.94
2023-01-27T23:09:51.334Z,-1.97
2023-01-27T23:12:19.900Z,-1.96
2023-01-27T23:14:48.244Z,-1.99
2023-01-27T23:17:16.451Z,-1.95
2023-01-27T23:19:47.074Z,-1.96
2023-01-27T23:22:15.321Z,-1.95
2023-01-27T23:24:44.229Z,-1.95
2023-01-27T23:27:12.993Z,-1.95
2023-01-27T23:29:41.470Z,-1.95
2023-01-27T23:32:11.121Z,-1.95
2023-01-27T23:34:39.621Z,-1.94
2023-01-27T23:37:09.452Z,-1.93
2023-01-27T23:39:38.259Z,-1.93
2023-01-27T23:42:08.811Z,-1.91
2023-01-27T23:44:37.680Z,-1.91
2023-01-27T23:47:06.060Z,-1.89
2023-01-27T23:49:34.768Z,-1.88
2023-01-27T23:52:03.075Z,-1.86
2023-01-27T23:54:33.639Z,-1.86
2023-01-27T23:57:03.319Z,-1.85
2023-01-27T23:59:31.731Z,-1.84
